Time;durP1;ratioP1;P1;durP2;ratioP2;P2;SDS_P1;SDS_P2;PMS_P1;PMS_P2;Temp;Humidity;BMP_temperature;BMP_pressure;BME280_temperature;BME280_humidity;BME280_pressure;Samples;Min_cycle;Max_cycle;Signal;HPM_P1;HPM_P2
2022/07/07 00:01:32;;;;;;;5.33;3.27;;;18.10;64.90;;;;;;4950339;29;20971;-83
2022/07/07 00:04:01;;;;;;;4.10;3.30;;;18.00;65.80;;;;;;4949352;29;20450;-84
2022/07/07 00:06:28;;;;;;;5.50;3.10;;;18.00;66.20;;;;;;4951047;29;20485;-84
2022/07/07 00:08:55;;;;;;;7.30;3.50;;;17.90;66.70;;;;;;4948291;29;20449;-84
2022/07/07 00:11:24;;;;;;;9.73;3.77;;;17.90;67.30;;;;;;4948587;29;20489;-84
2022/07/07 00:13:51;;;;;;;3.57;3.27;;;17.90;67.80;;;;;;4948957;29;20947;-84
2022/07/07 00:16:18;;;;;;;3.50;3.20;;;17.90;67.80;;;;;;4948780;29;20450;-84
2022/07/07 00:18:45;;;;;;;5.07;3.67;;;17.80;68.20;;;;;;4950045;29;20446;-83
2022/07/07 00:21:12;;;;;;;7.30;3.47;;;17.90;68.60;;;;;;4949639;29;20454;-84
2022/07/07 00:23:39;;;;;;;4.30;3.10;;;17.90;68.60;;;;;;4949289;29;20449;-85
2022/07/07 00:26:06;;;;;;;5.40;3.27;;;17.90;68.10;;;;;;4956137;29;20442;-82
2022/07/07 00:28:35;;;;;;;9.30;3.60;;;17.80;67.90;;;;;;4960205;29;20442;-81
2022/07/07 00:31:01;;;;;;;7.47;4.47;;;17.80;68.40;;;;;;4956933;29;20501;-83
2022/07/07 00:33:29;;;;;;;6.37;3.27;;;17.70;68.60;;;;;;4958608;29;20478;-82
2022/07/07 00:35:55;;;;;;;8.13;3.80;;;17.70;68.90;;;;;;4957712;29;20442;-84
2022/07/07 00:38:22;;;;;;;6.20;4.30;;;17.70;69.60;;;;;;4952968;29;20450;-84
2022/07/07 00:40:50;;;;;;;6.80;3.37;;;17.70;70.00;;;;;;4953238;29;20504;-85
2022/07/07 00:43:17;;;;;;;5.20;3.47;;;17.70;70.00;;;;;;4953844;29;20463;-84
2022/07/07 00:45:48;;;;;;;5.53;3.60;;;17.70;69.80;;;;;;4952527;29;20450;-83
2022/07/07 00:48:15;;;;;;;5.77;3.40;;;17.70;70.00;;;;;;4953462;29;20469;-85
2022/07/07 00:50:44;;;;;;;7.23;3.67;;;17.70;69.90;;;;;;4952993;28;20474;-83
2022/07/07 00:53:10;;;;;;;5.70;3.63;;;17.70;71.00;;;;;;4952436;29;20451;-82
2022/07/07 00:55:38;;;;;;;5.73;3.80;;;17.60;71.00;;;;;;4954081;29;20450;-83
2022/07/07 00:58:05;;;;;;;5.07;3.77;;;17.60;71.20;;;;;;4958934;29;20438;-83
2022/07/07 01:00:32;;;;;;;4.70;3.37;;;17.60;71.90;;;;;;4954920;29;20470;-82
2022/07/07 01:03:01;;;;;;;6.40;3.13;;;17.60;71.70;;;;;;4941035;29;20457;-82
2022/07/07 01:05:29;;;;;;;5.10;4.33;;;17.60;72.10;;;;;;4940258;29;20450;-83
2022/07/07 01:07:56;;;;;;;5.57;4.17;;;17.60;72.20;;;;;;4943052;29;20458;-83
2022/07/07 01:10:23;;;;;;;5.83;3.37;;;17.50;72.30;;;;;;4955343;29;20466;-82
2022/07/07 01:12:49;;;;;;;4.80;3.77;;;17.60;73.10;;;;;;4945738;28;20486;-82
2022/07/07 01:15:16;;;;;;;8.50;3.60;;;17.60;72.00;;;;;;4943221;29;20489;-84
2022/07/07 01:17:43;;;;;;;7.83;4.80;;;17.60;72.20;;;;;;4944023;29;20454;-83
2022/07/07 01:20:13;;;;;;;5.40;3.50;;;17.60;71.90;;;;;;4951893;29;20866;-82
2022/07/07 01:22:45;;;;;;;7.27;3.53;;;17.60;71.70;;;;;;4954765;29;21144;-84
2022/07/07 01:25:12;;;;;;;6.87;4.60;;;17.60;71.40;;;;;;4954303;29;20461;-82
2022/07/07 01:27:38;;;;;;;9.03;4.57;;;17.60;71.00;;;;;;4955792;29;20470;-83
2022/07/07 01:30:06;;;;;;;6.40;4.80;;;17.50;70.80;;;;;;4952635;29;20494;-84
2022/07/07 01:32:33;;;;;;;5.33;4.63;;;17.50;70.90;;;;;;4952351;29;20860;-84
2022/07/07 01:35:00;;;;;;;8.93;5.90;;;17.60;71.30;;;;;;4952743;29;20917;-84
2022/07/07 01:37:26;;;;;;;10.40;6.33;;;17.60;71.60;;;;;;4953633;29;20517;-83
2022/07/07 01:39:55;;;;;;;10.10;7.10;;;17.60;72.00;;;;;;4952130;29;20477;-84
2022/07/07 01:42:22;;;;;;;8.80;7.37;;;17.60;72.30;;;;;;4953682;29;20461;-82
2022/07/07 01:44:51;;;;;;;8.60;6.57;;;17.60;72.60;;;;;;4954291;29;20461;-84
2022/07/07 01:47:18;;;;;;;10.10;7.90;;;17.60;73.10;;;;;;4952942;29;20446;-84
2022/07/07 01:49:44;;;;;;;11.53;7.30;;;17.60;73.50;;;;;;4950861;29;20466;-83
2022/07/07 01:52:11;;;;;;;8.90;7.77;;;17.60;73.60;;;;;;4951521;29;20493;-84
2022/07/07 01:54:39;;;;;;;10.43;6.53;;;17.60;73.90;;;;;;4952274;29;20446;-83
2022/07/07 01:57:08;;;;;;;7.27;6.50;;;17.60;73.80;;;;;;4951411;29;20449;-83
2022/07/07 01:59:36;;;;;;;8.30;5.73;;;17.60;74.50;;;;;;4951898;29;20518;-84
2022/07/07 02:02:03;;;;;;;8.90;5.87;;;17.60;74.50;;;;;;4951233;29;20475;-83
2022/07/07 02:04:30;;;;;;;8.57;6.50;;;17.60;74.50;;;;;;4951219;29;20472;-84
2022/07/07 02:06:56;;;;;;;6.33;5.53;;;17.60;74.20;;;;;;4952931;29;20586;-84
2022/07/07 02:09:23;;;;;;;6.40;5.70;;;17.60;74.40;;;;;;4950618;29;20506;-83
2022/07/07 02:11:50;;;;;;;7.03;5.60;;;17.70;74.30;;;;;;4954753;29;20520;-82
2022/07/07 02:14:18;;;;;;;6.00;5.03;;;17.60;73.90;;;;;;4956122;29;20446;-82
2022/07/07 02:16:45;;;;;;;7.10;4.80;;;17.60;74.30;;;;;;4956197;29;20454;-82
2022/07/07 02:19:11;;;;;;;8.30;5.10;;;17.50;74.60;;;;;;4956794;29;20466;-82
2022/07/07 02:21:38;;;;;;;10.73;5.40;;;17.50;75.10;;;;;;4954784;29;20493;-84
2022/07/07 02:24:05;;;;;;;9.13;4.60;;;17.40;75.40;;;;;;4951051;29;20461;-84
2022/07/07 02:26:33;;;;;;;7.70;5.00;;;17.40;76.30;;;;;;4950589;29;20462;-84
2022/07/07 02:29:00;;;;;;;5.80;4.30;;;17.40;76.40;;;;;;4951130;29;20458;-84
2022/07/07 02:31:28;;;;;;;4.73;3.70;;;17.30;75.90;;;;;;4950821;29;20793;-85
2022/07/07 02:33:55;;;;;;;9.00;4.80;;;17.30;76.00;;;;;;4950460;29;20462;-84
2022/07/07 02:36:22;;;;;;;6.30;4.30;;;17.30;76.20;;;;;;4949796;29;20508;-84
2022/07/07 02:38:50;;;;;;;6.00;4.63;;;17.30;76.60;;;;;;4950383;29;20450;-82
2022/07/07 02:41:17;;;;;;;9.60;5.17;;;17.30;76.00;;;;;;4943283;29;20443;-83
2022/07/07 02:43:44;;;;;;;4.23;3.83;;;17.30;76.30;;;;;;4954165;29;20427;-83
2022/07/07 02:46:10;;;;;;;6.17;4.10;;;17.30;75.40;;;;;;4949778;29;20469;-84
2022/07/07 02:48:39;;;;;;;4.90;3.60;;;17.30;75.90;;;;;;4949176;29;20442;-84
2022/07/07 02:51:05;;;;;;;6.17;4.03;;;17.30;76.00;;;;;;4945549;29;20489;-84
2022/07/07 02:53:34;;;;;;;6.23;4.03;;;17.20;76.20;;;;;;4942937;29;20490;-83
2022/07/07 02:56:01;;;;;;;6.77;3.73;;;17.20;76.60;;;;;;4946214;28;20457;-83
2022/07/07 02:58:28;;;;;;;9.10;5.00;;;17.20;77.00;;;;;;4946086;29;20446;-83
2022/07/07 03:00:55;;;;;;;7.00;4.47;;;17.20;76.90;;;;;;4947505;29;20476;-83
2022/07/07 03:03:22;;;;;;;3.40;2.93;;;17.20;77.50;;;;;;4948707;29;20438;-82
2022/07/07 03:05:50;;;;;;;6.17;3.50;;;17.20;76.80;;;;;;4951001;29;20454;-83
2022/07/07 03:08:17;;;;;;;6.80;3.83;;;17.20;76.80;;;;;;4958856;29;20446;-82
2022/07/07 03:10:44;;;;;;;5.43;3.30;;;17.20;76.50;;;;;;4956480;29;20512;-82
2022/07/07 03:13:11;;;;;;;3.40;3.03;;;17.20;76.50;;;;;;4952846;29;20505;-81
2022/07/07 03:15:37;;;;;;;8.60;4.00;;;17.10;76.80;;;;;;4937169;29;20446;-82
2022/07/07 03:18:04;;;;;;;9.50;4.83;;;17.20;77.10;;;;;;4937128;29;20446;-82
2022/07/07 03:20:31;;;;;;;10.90;3.80;;;17.10;76.70;;;;;;4941111;29;20890;-83
2022/07/07 03:22:59;;;;;;;5.50;3.47;;;17.10;76.70;;;;;;4943395;29;20458;-83
2022/07/07 03:25:26;;;;;;;4.50;3.07;;;17.10;76.80;;;;;;4945864;29;20452;-83
2022/07/07 03:27:52;;;;;;;7.90;4.17;;;17.10;76.80;;;;;;4952100;29;20446;-82
2022/07/07 03:30:19;;;;;;;8.20;4.53;;;17.20;75.90;;;;;;4949242;29;20466;-83
2022/07/07 03:32:46;;;;;;;8.27;4.10;;;17.20;76.20;;;;;;4946893;29;20486;-82
2022/07/07 03:35:12;;;;;;;3.67;3.37;;;17.30;75.70;;;;;;4952073;29;20454;-81
2022/07/07 03:37:39;;;;;;;4.40;3.97;;;17.40;75.00;;;;;;4953428;29;20450;-84
2022/07/07 03:40:08;;;;;;;4.27;3.77;;;17.40;75.10;;;;;;4951416;29;20490;-84
2022/07/07 03:42:37;;;;;;;9.43;3.80;;;17.50;75.40;;;;;;4949849;29;20446;-84
2022/07/07 03:45:05;;;;;;;6.93;3.70;;;17.50;75.20;;;;;;4950250;29;20458;-82
2022/07/07 03:47:32;;;;;;;5.33;3.87;;;17.60;75.20;;;;;;4953791;29;20450;-83
2022/07/07 03:49:58;;;;;;;11.47;5.60;;;17.60;74.90;;;;;;4951925;29;20478;-84
2022/07/07 03:52:25;;;;;;;6.77;4.03;;;17.60;74.70;;;;;;4951617;29;20489;-82
2022/07/07 03:54:52;;;;;;;5.83;3.60;;;17.60;73.90;;;;;;4950570;29;20456;-84
2022/07/07 03:57:20;;;;;;;5.20;3.80;;;17.50;74.20;;;;;;4950290;29;20465;-84
2022/07/07 03:59:46;;;;;;;3.90;3.07;;;17.60;73.80;;;;;;4950023;29;20958;-84
2022/07/07 04:02:13;;;;;;;6.40;3.50;;;17.70;72.70;;;;;;4952781;29;20441;-82
2022/07/07 04:04:40;;;;;;;4.93;3.37;;;17.80;72.20;;;;;;4959617;29;20446;-81
2022/07/07 04:07:06;;;;;;;7.73;3.80;;;17.70;72.20;;;;;;4959905;29;20465;-82
2022/07/07 04:09:33;;;;;;;6.93;3.70;;;17.80;72.70;;;;;;4955256;29;20478;-84
2022/07/07 04:12:00;;;;;;;6.57;3.10;;;17.80;72.40;;;;;;4946851;29;20524;-83
2022/07/07 04:14:28;;;;;;;10.53;3.67;;;17.90;72.00;;;;;;4951380;29;20457;-83
2022/07/07 04:16:54;;;;;;;4.73;2.73;;;18.00;71.80;;;;;;4950819;29;20450;-84
2022/07/07 04:19:21;;;;;;;4.20;2.83;;;18.00;70.90;;;;;;4948991;29;20470;-84
2022/07/07 04:21:48;;;;;;;7.53;3.13;;;18.00;70.50;;;;;;4950956;29;20442;-83
2022/07/07 04:24:15;;;;;;;5.27;3.00;;;18.10;70.40;;;;;;4955891;29;20461;-83
2022/07/07 04:26:41;;;;;;;4.80;2.73;;;18.10;71.30;;;;;;4955506;29;20453;-84
2022/07/07 04:29:08;;;;;;;7.47;2.40;;;18.10;70.90;;;;;;4957487;29;20484;-82
2022/07/07 04:31:37;;;;;;;3.20;2.23;;;18.00;71.10;;;;;;4950970;29;20450;-84
2022/07/07 04:34:05;;;;;;;3.33;2.20;;;17.90;70.90;;;;;;4953916;29;20498;-84
2022/07/07 04:36:31;;;;;;;5.10;3.37;;;17.90;71.90;;;;;;4956889;29;20462;-84
2022/07/07 04:38:58;;;;;;;3.93;3.03;;;17.90;73.10;;;;;;4956865;29;20496;-83
2022/07/07 04:41:25;;;;;;;6.27;3.20;;;17.90;73.20;;;;;;4955631;29;20798;-83
2022/07/07 04:43:52;;;;;;;5.63;3.17;;;17.90;72.30;;;;;;4953723;29;20446;-83
2022/07/07 04:46:18;;;;;;;5.10;3.60;;;18.00;72.60;;;;;;4953859;29;20457;-83
2022/07/07 04:48:46;;;;;;;5.47;3.20;;;18.00;71.80;;;;;;4954925;29;20478;-84
2022/07/07 04:51:13;;;;;;;4.37;3.00;;;18.00;72.40;;;;;;4953257;29;20454;-84
2022/07/07 04:53:40;;;;;;;5.47;3.13;;;18.00;72.30;;;;;;4953602;29;20906;-83
2022/07/07 04:56:07;;;;;;;5.33;2.80;;;18.00;72.60;;;;;;4952755;29;20477;-84
2022/07/07 04:58:34;;;;;;;7.03;3.70;;;18.10;73.70;;;;;;4952956;29;20460;-85
2022/07/07 05:01:01;;;;;;;4.70;3.00;;;18.10;72.90;;;;;;4952808;29;20493;-83
2022/07/07 05:03:27;;;;;;;13.60;4.43;;;18.00;73.20;;;;;;4953181;29;20790;-85
2022/07/07 05:05:55;;;;;;;5.20;3.30;;;17.90;73.90;;;;;;4951906;29;20568;-84
2022/07/07 05:08:22;;;;;;;5.13;4.13;;;17.90;74.00;;;;;;4953581;29;20442;-85
2022/07/07 05:10:49;;;;;;;6.17;3.13;;;17.90;74.20;;;;;;4951658;29;20478;-83
2022/07/07 05:13:16;;;;;;;7.87;4.37;;;17.80;75.00;;;;;;4952002;29;20497;-84
2022/07/07 05:15:43;;;;;;;4.47;3.17;;;17.90;75.20;;;;;;4952222;29;20450;-85
2022/07/07 05:18:10;;;;;;;4.40;3.30;;;17.90;75.00;;;;;;4952529;29;20450;-84
2022/07/07 05:20:36;;;;;;;5.80;3.33;;;18.00;74.50;;;;;;4953735;29;20482;-84
2022/07/07 05:23:04;;;;;;;5.40;3.37;;;18.30;73.70;;;;;;4953543;29;20454;-84
2022/07/07 05:25:31;;;;;;;6.43;4.20;;;18.50;72.70;;;;;;4952304;29;20450;-84
2022/07/07 05:27:58;;;;;;;3.23;2.77;;;18.60;71.80;;;;;;4951106;29;20458;-82
2022/07/07 05:30:25;;;;;;;6.50;3.60;;;18.60;71.00;;;;;;4937685;29;20474;-82
2022/07/07 05:32:51;;;;;;;7.00;3.77;;;19.00;71.60;;;;;;4938039;29;20485;-82
2022/07/07 05:35:18;;;;;;;5.10;3.63;;;19.20;70.70;;;;;;4940588;29;20535;-84
2022/07/07 05:37:46;;;;;;;4.40;3.80;;;19.20;70.10;;;;;;4947157;29;20465;-84
2022/07/07 05:40:14;;;;;;;5.27;3.83;;;19.10;69.90;;;;;;4951234;29;20478;-84
2022/07/07 05:42:41;;;;;;;4.47;3.00;;;19.10;70.60;;;;;;4951885;29;20452;-84
2022/07/07 05:45:09;;;;;;;5.33;3.43;;;19.50;69.70;;;;;;4950067;29;21011;-84
2022/07/07 05:47:36;;;;;;;6.63;3.63;;;20.20;67.20;;;;;;4955192;29;20458;-83
2022/07/07 05:50:04;;;;;;;7.97;3.87;;;20.70;66.50;;;;;;4956865;29;20478;-83
2022/07/07 05:52:30;;;;;;;4.47;3.53;;;21.10;64.80;;;;;;4958011;29;20445;-81
2022/07/07 05:54:57;;;;;;;11.53;3.90;;;21.60;62.80;;;;;;4961110;29;20435;-81
2022/07/07 05:57:25;;;;;;;7.10;3.53;;;22.20;60.80;;;;;;4955846;29;20457;-84
2022/07/07 05:59:52;;;;;;;6.20;3.57;;;22.90;59.50;;;;;;4954411;29;20466;-84
2022/07/07 06:02:22;;;;;;;4.47;3.30;;;23.20;58.20;;;;;;4952957;29;20454;-84
2022/07/07 06:04:48;;;;;;;5.60;3.57;;;23.70;57.20;;;;;;4952872;29;20458;-82
2022/07/07 06:07:15;;;;;;;6.53;3.23;;;23.80;55.30;;;;;;4953472;29;20447;-85
2022/07/07 06:09:42;;;;;;;5.03;3.40;;;23.70;55.60;;;;;;4953995;29;20469;-84
2022/07/07 06:12:10;;;;;;;4.83;3.47;;;24.10;55.80;;;;;;4960213;29;20446;-81
2022/07/07 06:14:38;;;;;;;6.50;3.07;;;24.70;54.60;;;;;;4955276;29;20504;-81
2022/07/07 06:17:05;;;;;;;6.50;3.47;;;25.20;54.00;;;;;;4951250;29;20446;-83
2022/07/07 06:19:33;;;;;;;3.90;3.10;;;25.50;53.30;;;;;;4953123;29;20483;-84
2022/07/07 06:22:00;;;;;;;4.60;3.30;;;25.90;52.40;;;;;;4951449;29;20486;-82
2022/07/07 06:24:27;;;;;;;3.90;3.10;;;25.60;52.40;;;;;;4950548;29;20451;-82
2022/07/07 06:26:54;;;;;;;8.47;3.53;;;26.00;52.20;;;;;;4950632;29;20458;-84
2022/07/07 06:29:20;;;;;;;4.33;3.03;;;26.20;51.80;;;;;;4951744;29;20471;-84
2022/07/07 06:31:50;;;;;;;4.50;3.47;;;25.90;51.70;;;;;;4952471;29;20446;-83
2022/07/07 06:34:17;;;;;;;4.00;3.30;;;25.60;52.10;;;;;;4951143;29;20467;-84
2022/07/07 06:36:43;;;;;;;8.43;3.07;;;25.60;51.90;;;;;;4950656;29;20452;-83
2022/07/07 06:39:10;;;;;;;5.57;3.30;;;25.40;52.90;;;;;;4950798;29;20458;-83
2022/07/07 06:41:38;;;;;;;7.30;3.10;;;25.70;52.80;;;;;;4951644;29;20466;-84
2022/07/07 06:44:06;;;;;;;5.00;3.97;;;26.10;52.30;;;;;;4951815;29;20452;-83
2022/07/07 06:46:33;;;;;;;5.93;3.87;;;26.80;51.20;;;;;;4951564;29;20461;-84
2022/07/07 06:49:01;;;;;;;3.63;3.00;;;26.60;50.60;;;;;;4956513;29;20442;-83
2022/07/07 06:51:28;;;;;;;5.67;3.70;;;26.00;51.40;;;;;;4957154;29;20455;-82
2022/07/07 06:53:55;;;;;;;4.30;3.53;;;25.10;53.30;;;;;;4957292;29;20486;-82
2022/07/07 06:56:22;;;;;;;6.90;3.43;;;24.90;53.40;;;;;;4953684;29;20931;-81
2022/07/07 06:58:49;;;;;;;4.30;3.00;;;24.80;54.30;;;;;;4952487;29;20446;-84
2022/07/07 07:01:15;;;;;;;5.00;3.37;;;24.50;54.40;;;;;;4951243;29;20450;-85
2022/07/07 07:03:43;;;;;;;6.83;3.17;;;24.30;54.60;;;;;;4949628;29;20442;-83
2022/07/07 07:06:11;;;;;;;5.10;2.70;;;24.20;55.10;;;;;;4950470;29;20450;-83
2022/07/07 07:08:37;;;;;;;5.97;2.80;;;24.20;54.80;;;;;;4951971;29;20567;-84
2022/07/07 07:11:04;;;;;;;4.30;2.63;;;24.20;54.40;;;;;;4947412;29;20473;-83
2022/07/07 07:13:31;;;;;;;4.80;2.60;;;24.10;54.30;;;;;;4949056;29;20490;-82
2022/07/07 07:15:58;;;;;;;4.17;3.13;;;24.00;54.40;;;;;;4949476;29;20446;-83
2022/07/07 07:18:25;;;;;;;4.27;2.80;;;23.90;54.80;;;;;;4949667;29;20454;-83
2022/07/07 07:20:51;;;;;;;4.37;3.10;;;23.90;54.90;;;;;;4949038;29;20477;-83
2022/07/07 07:23:23;;;;;;;3.40;2.30;;;23.90;55.10;;;;;;4950742;29;20458;-81
2022/07/07 07:25:50;;;;;;;3.43;2.33;;;23.80;55.00;;;;;;4954759;29;20454;-82
2022/07/07 07:28:17;;;;;;;4.40;2.60;;;23.80;55.00;;;;;;4954907;29;20457;-80
2022/07/07 07:30:46;;;;;;;4.63;2.80;;;23.80;56.00;;;;;;4953591;29;20572;-84
2022/07/07 07:33:13;;;;;;;4.23;2.37;;;23.70;56.00;;;;;;4947447;29;20513;-83
2022/07/07 07:35:40;;;;;;;5.87;1.93;;;23.80;56.10;;;;;;4944694;29;20811;-84
2022/07/07 07:38:06;;;;;;;3.00;2.17;;;23.80;56.20;;;;;;4945272;29;20450;-84
2022/07/07 07:40:35;;;;;;;4.90;2.30;;;23.70;55.80;;;;;;4941936;29;20470;-83
2022/07/07 07:43:01;;;;;;;6.93;2.40;;;23.70;55.80;;;;;;4938905;29;20461;-82
2022/07/07 07:45:28;;;;;;;2.30;1.93;;;23.60;56.30;;;;;;4936865;29;21095;-83
2022/07/07 07:47:56;;;;;;;6.87;2.73;;;24.00;56.10;;;;;;4937724;29;20454;-84
2022/07/07 07:50:23;;;;;;;4.07;2.37;;;24.30;55.80;;;;;;4938576;29;20474;-83
2022/07/07 07:52:51;;;;;;;4.30;2.47;;;24.20;55.30;;;;;;4944898;29;20527;-82
2022/07/07 07:55:19;;;;;;;2.87;2.20;;;24.00;55.90;;;;;;4945547;29;20502;-83
2022/07/07 07:57:48;;;;;;;2.70;2.07;;;23.70;56.30;;;;;;4958604;29;20453;-82
2022/07/07 08:00:17;;;;;;;5.33;2.70;;;23.40;56.50;;;;;;4949650;29;20486;-82
2022/07/07 08:02:44;;;;;;;5.90;2.50;;;23.10;56.60;;;;;;4948947;29;20973;-83
2022/07/07 08:05:12;;;;;;;7.97;2.70;;;23.00;57.10;;;;;;4949547;29;20445;-83
2022/07/07 08:07:39;;;;;;;3.50;3.10;;;22.90;57.60;;;;;;4950677;29;20454;-86
2022/07/07 08:10:08;;;;;;;4.87;2.77;;;22.70;57.80;;;;;;4949845;29;20474;-84
2022/07/07 08:12:34;;;;;;;4.40;2.80;;;22.60;58.40;;;;;;4951437;29;20449;-84
2022/07/07 08:15:03;;;;;;;5.90;3.10;;;22.60;58.70;;;;;;4946505;29;20817;-85
2022/07/07 08:17:30;;;;;;;5.67;2.83;;;22.50;59.40;;;;;;4947355;29;20541;-83
2022/07/07 08:19:56;;;;;;;4.30;2.77;;;22.50;59.50;;;;;;4951212;23;20501;-86
2022/07/07 08:22:23;;;;;;;3.83;2.57;;;22.40;59.40;;;;;;4937772;29;20450;-86
2022/07/07 08:24:50;;;;;;;7.87;2.93;;;22.20;59.60;;;;;;4937388;29;20450;-85
2022/07/07 08:27:17;;;;;;;2.63;2.43;;;22.20;60.00;;;;;;4938361;29;20558;-86
2022/07/07 08:29:44;;;;;;;6.13;2.60;;;22.30;60.40;;;;;;4942975;29;20477;-86
2022/07/07 08:32:13;;;;;;;3.70;2.87;;;22.40;60.10;;;;;;4957002;29;20466;-86
2022/07/07 08:34:40;;;;;;;4.40;2.60;;;22.20;60.20;;;;;;4946483;29;20482;-85
2022/07/07 08:40:38;;;;;;;4.30;2.90;;;22.40;61.20;;;;;;4941123;29;20522;-92
2022/07/07 08:43:45;;;;;;;4.87;3.50;;;22.50;61.00;;;;;;4939554;29;20465;-91
2022/07/07 09:15:12;;;;;;;4.13;3.27;;;25.00;58.90;;;;;;1318466;26;20531;-91
2022/07/07 09:17:39;;;;;;;5.63;3.90;;;24.60;58.60;;;;;;4956354;29;20537;-90
2022/07/07 09:20:21;;;;;;;4.23;3.83;;;24.40;59.20;;;;;;4935358;28;20561;-90
2022/07/07 09:23:08;;;;;;;3.40;3.10;;;24.30;59.80;;;;;;4925329;29;20478;-90
2022/07/07 09:25:35;;;;;;;6.43;3.33;;;24.10;60.70;;;;;;4933355;29;20454;-88
2022/07/07 09:28:05;;;;;;;3.33;2.60;;;23.80;61.60;;;;;;4943777;29;20466;-94
2022/07/07 09:30:36;;;;;;;2.93;2.40;;;23.50;63.90;;;;;;4942863;29;20475;-91
2022/07/07 09:33:05;;;;;;;3.40;2.17;;;23.30;64.10;;;;;;4938989;29;20510;-89
2022/07/07 09:38:22;;;;;;;4.67;2.03;;;23.30;65.20;;;;;;4920273;29;20494;-87
2022/07/07 09:41:08;;;;;;;7.63;2.40;;;23.20;65.40;;;;;;4918997;29;20478;-88
2022/07/07 09:43:38;;;;;;;5.37;3.90;;;23.10;66.30;;;;;;4919628;29;20448;-88
2022/07/07 09:46:17;;;;;;;4.10;2.33;;;23.10;67.50;;;;;;4919102;29;20442;-85
2022/07/07 09:48:47;;;;;;;5.20;2.87;;;22.80;68.90;;;;;;4920680;29;20537;-88
2022/07/07 09:51:19;;;;;;;5.97;2.90;;;22.60;70.00;;;;;;4929890;29;20439;-88
2022/07/07 09:53:57;;;;;;;5.50;2.00;;;22.50;71.60;;;;;;4917592;29;20481;-89
2022/07/07 09:56:24;;;;;;;2.70;2.37;;;22.40;72.10;;;;;;4917057;29;20445;-88
2022/07/07 09:58:52;;;;;;;3.60;2.67;;;22.30;72.40;;;;;;4919894;29;20466;-88
2022/07/07 10:01:24;;;;;;;3.60;2.77;;;22.30;72.90;;;;;;4919772;29;20952;-88
2022/07/07 10:03:59;;;;;;;6.77;5.03;;;22.40;72.80;;;;;;4920222;29;20462;-88
2022/07/07 10:06:29;;;;;;;4.03;3.30;;;22.50;72.40;;;;;;4933210;29;20510;-88
2022/07/07 10:08:58;;;;;;;9.20;5.20;;;22.60;71.80;;;;;;4915934;29;20475;-88
2022/07/07 10:11:34;;;;;;;5.83;3.03;;;22.90;71.20;;;;;;4930590;29;20424;-89
2022/07/07 10:14:13;;;;;;;2.90;2.40;;;23.00;69.60;;;;;;4941178;29;20537;-89
2022/07/07 10:16:49;;;;;;;2.60;2.30;;;23.00;68.80;;;;;;4939424;29;20451;-89
2022/07/07 10:19:35;;;;;;;3.43;3.07;;;23.10;68.30;;;;;;4972702;23;20958;-88
2022/07/07 10:22:16;;;;;;;3.33;3.03;;;23.10;68.50;;;;;;4944371;29;20454;-89
2022/07/07 10:31:53;;;;;;;;;;;;;;;;;;;;;
2022/07/07 10:38:39;;;;;;;3.23;2.93;;;24.90;64.00;;;;;;4867408;29;20455;-91
2022/07/07 10:42:04;;;;;;;2.87;2.60;;;24.90;62.40;;;;;;4949584;28;20450;-91
2022/07/07 10:48:36;;;;;;;4.20;3.80;;;24.20;63.80;;;;;;4900341;29;20426;-91
2022/07/07 10:54:47;;;;;;;4.20;2.90;;;24.20;64.20;;;;;;4941606;28;20537;-89
2022/07/07 10:57:41;;;;;;;2.73;2.10;;;24.20;64.40;;;;;;4958046;28;20456;-90
2022/07/07 11:00:14;;;;;;;3.83;3.10;;;24.20;64.60;;;;;;4933921;29;20466;-89
2022/07/07 11:02:47;;;;;;;4.03;2.60;;;24.10;64.20;;;;;;4942941;29;20445;-90
2022/07/07 11:06:05;;;;;;;3.10;2.33;;;23.80;64.90;;;;;;4944262;29;20525;-91
2022/07/07 11:12:10;;;;;;;3.07;2.10;;;23.50;66.60;;;;;;4945174;28;20454;-93
2022/07/07 11:18:18;;;;;;;2.77;2.30;;;22.90;69.90;;;;;;4942751;29;20458;-92
2022/07/07 11:21:19;;;;;;;5.27;2.87;;;22.30;78.60;;;;;;4941820;29;20446;-92
2022/07/07 11:24:09;;;;;;;3.70;2.20;;;22.10;80.00;;;;;;4943651;29;20454;-92
2022/07/07 11:26:38;;;;;;;5.63;3.03;;;22.20;80.00;;;;;;4957230;29;20426;-90
2022/07/07 11:29:06;;;;;;;6.13;2.70;;;22.50;78.90;;;;;;5000807;23;20553;-91
2022/07/07 11:31:43;;;;;;;5.10;4.07;;;22.90;78.10;;;;;;4958797;28;20446;-91
2022/07/07 11:34:14;;;;;;;3.50;2.70;;;23.10;75.90;;;;;;4956437;28;20576;-91
2022/07/07 11:36:51;;;;;;;5.43;2.53;;;23.00;73.30;;;;;;4945995;29;20434;-90
2022/07/07 11:39:49;;;;;;;4.70;3.07;;;23.10;73.80;;;;;;4943515;29;20454;-90
2022/07/07 11:46:08;;;;;;;6.80;2.90;;;23.20;71.10;;;;;;4918961;29;20448;-92
2022/07/07 11:49:22;;;;;;;7.23;3.53;;;23.10;71.40;;;;;;4941942;29;20480;-92
2022/07/07 11:55:34;;;;;;;5.20;2.37;;;22.80;71.60;;;;;;4940424;28;21018;-91
2022/07/07 12:05:38;;;;;;;3.80;2.50;;;23.50;69.90;;;;;;4938413;29;20498;-91
2022/07/07 12:08:12;;;;;;;4.43;3.10;;;23.30;68.00;;;;;;4918918;29;20447;-91
2022/07/07 12:58:22;;;;;;;5.90;5.10;;;23.20;73.60;;;;;;4287067;26;20473;-87
2022/07/07 13:01:03;;;;;;;4.63;3.67;;;23.10;73.70;;;;;;4922371;29;20475;-87
2022/07/07 13:03:31;;;;;;;3.90;3.03;;;23.30;72.30;;;;;;4917105;29;20452;-86
2022/07/07 13:05:59;;;;;;;6.23;2.80;;;23.40;70.50;;;;;;4922153;29;20450;-87
2022/07/07 13:08:27;;;;;;;6.53;3.40;;;23.50;69.30;;;;;;4925598;29;20496;-88
2022/07/07 13:10:54;;;;;;;5.50;3.13;;;23.60;68.60;;;;;;4938347;28;20510;-85
2022/07/07 13:13:24;;;;;;;4.73;2.80;;;23.70;67.50;;;;;;4937754;28;20962;-87
2022/07/07 13:15:51;;;;;;;7.40;2.57;;;23.70;67.20;;;;;;4927400;29;20479;-87
2022/07/07 13:18:20;;;;;;;4.43;3.37;;;23.70;67.00;;;;;;4926113;29;20884;-87
2022/07/07 13:20:48;;;;;;;4.30;2.80;;;23.60;67.40;;;;;;4920975;29;20467;-87
2022/07/07 13:23:15;;;;;;;3.43;3.13;;;23.70;66.80;;;;;;4919305;29;20498;-87
2022/07/07 13:25:42;;;;;;;3.93;2.20;;;23.80;66.60;;;;;;4918645;29;20452;-87
2022/07/07 13:28:09;;;;;;;6.37;3.03;;;23.80;66.10;;;;;;4910941;29;20483;-86
2022/07/07 13:30:37;;;;;;;3.07;2.73;;;23.80;66.50;;;;;;4915402;29;20498;-87
2022/07/07 13:33:05;;;;;;;4.30;2.67;;;23.80;66.60;;;;;;4905695;29;20440;-87
2022/07/07 13:35:32;;;;;;;3.13;2.43;;;23.80;67.00;;;;;;4906690;29;20484;-86
2022/07/07 13:37:59;;;;;;;6.50;2.77;;;23.60;67.10;;;;;;4917653;29;20480;-86
2022/07/07 13:40:26;;;;;;;4.90;2.87;;;23.60;67.60;;;;;;4902574;29;20464;-86
2022/07/07 13:42:53;;;;;;;3.70;3.10;;;23.60;67.50;;;;;;4901320;29;20459;-86
2022/07/07 13:45:20;;;;;;;7.70;6.43;;;23.70;67.30;;;;;;4900811;29;20448;-86
2022/07/07 13:47:48;;;;;;;7.40;4.53;;;23.70;68.30;;;;;;4901473;29;20448;-87
2022/07/07 13:50:14;;;;;;;6.60;3.27;;;23.70;67.90;;;;;;4900466;29;20475;-86
2022/07/07 13:52:45;;;;;;;4.53;2.50;;;23.60;68.30;;;;;;4902376;29;20452;-86
2022/07/07 13:55:12;;;;;;;2.50;2.30;;;23.40;69.90;;;;;;4904897;29;20574;-86
2022/07/07 13:57:39;;;;;;;3.53;2.13;;;22.90;73.10;;;;;;4903051;29;20495;-87
2022/07/07 14:18:46;;;;;;;1.70;1.33;;;21.50;81.50;;;;;;5467504;23;20516;-85
2022/07/07 14:21:13;;;;;;;1.70;1.50;;;21.50;80.60;;;;;;4941445;29;20454;-85
2022/07/07 14:23:41;;;;;;;4.17;2.90;;;21.70;79.80;;;;;;4944000;29;20453;-86
2022/07/07 14:26:08;;;;;;;2.70;1.50;;;21.80;79.50;;;;;;4941291;29;20450;-85
2022/07/07 14:28:35;;;;;;;2.67;2.47;;;21.70;79.20;;;;;;4957940;29;20557;-85
2022/07/07 14:31:03;;;;;;;2.33;1.57;;;21.60;79.80;;;;;;4942066;29;20435;-85
2022/07/07 14:33:30;;;;;;;2.80;1.73;;;21.40;82.40;;;;;;4925333;29;20964;-86
2022/07/07 14:35:58;;;;;;;4.53;1.70;;;21.20;86.30;;;;;;4918761;29;20494;-86
2022/07/07 14:38:24;;;;;;;2.77;2.00;;;21.00;89.30;;;;;;4918373;29;20462;-86
2022/07/07 14:40:51;;;;;;;2.97;2.00;;;20.80;90.00;;;;;;4919508;29;20471;-86
2022/07/07 14:43:18;;;;;;;3.83;1.90;;;20.60;91.20;;;;;;4918420;29;20459;-86
2022/07/07 14:45:46;;;;;;;3.50;1.80;;;20.60;91.70;;;;;;4918652;29;20943;-86
2022/07/07 14:48:13;;;;;;;2.37;1.70;;;20.50;92.50;;;;;;4917220;29;20463;-86
2022/07/07 14:50:39;;;;;;;3.20;2.63;;;20.70;92.80;;;;;;4919832;29;20451;-86
2022/07/07 14:53:07;;;;;;;2.20;1.90;;;20.80;92.90;;;;;;4934436;29;20451;-86
2022/07/07 14:55:34;;;;;;;2.20;2.00;;;20.90;92.50;;;;;;4921717;29;20487;-86
2022/07/07 14:58:01;;;;;;;2.40;2.00;;;21.00;92.60;;;;;;4919603;29;20459;-86
2022/07/07 15:00:27;;;;;;;2.60;2.10;;;21.20;92.20;;;;;;4917225;29;20470;-86
2022/07/07 15:02:54;;;;;;;2.20;1.87;;;21.30;91.60;;;;;;4921542;29;20461;-86
2022/07/07 15:05:21;;;;;;;4.30;2.17;;;21.40;91.50;;;;;;4925769;29;20510;-86
2022/07/07 15:07:48;;;;;;;3.33;1.97;;;21.90;90.80;;;;;;4918605;29;20519;-86
2022/07/07 15:10:16;;;;;;;2.90;2.33;;;22.60;90.00;;;;;;4917840;29;20475;-86
2022/07/07 15:12:43;;;;;;;3.03;2.27;;;23.10;87.80;;;;;;4917537;29;20447;-86
2022/07/07 15:15:10;;;;;;;2.50;2.03;;;23.50;84.00;;;;;;4917674;29;20486;-86
2022/07/07 15:17:38;;;;;;;2.30;2.10;;;23.60;82.70;;;;;;4917485;29;20828;-87
2022/07/07 15:20:05;;;;;;;2.90;2.20;;;23.70;81.90;;;;;;4918281;29;20478;-87